Time;durP1;ratioP1;P1;durP2;ratioP2;P2;SDS_P1;SDS_P2;PMS_P1;PMS_P2;Temp;Humidity;BMP_temperature;BMP_pressure;BME280_temperature;BME280_humidity;BME280_pressure;Samples;Min_cycle;Max_cycle;Signal;HPM_P1;HPM_P2
2021/03/26 00:00:51;;;;;;;1.70;1.50;;;20.00;91.60;;;;;;5037959;28;20044;-79
2021/03/26 00:03:21;;;;;;;2.53;1.88;;;20.00;91.60;;;;;;5037418;28;20081;-79
2021/03/26 00:05:49;;;;;;;2.80;1.65;;;20.00;91.60;;;;;;5039139;28;20025;-81
2021/03/26 00:08:16;;;;;;;2.67;1.75;;;19.90;91.60;;;;;;5041816;28;20402;-79
2021/03/26 00:10:42;;;;;;;2.35;1.98;;;19.90;91.50;;;;;;5041876;28;20021;-79
2021/03/26 00:13:08;;;;;;;1.95;1.73;;;19.90;91.50;;;;;;5040944;28;20056;-79
2021/03/26 00:15:35;;;;;;;3.20;2.08;;;20.00;91.60;;;;;;5040291;28;20483;-79
2021/03/26 00:18:02;;;;;;;1.88;1.65;;;20.00;91.60;;;;;;5039723;28;20025;-79
2021/03/26 00:20:27;;;;;;;3.25;2.40;;;20.00;91.60;;;;;;5041234;28;20151;-80
2021/03/26 00:22:53;;;;;;;2.75;1.98;;;19.90;91.50;;;;;;5042026;28;20047;-78
2021/03/26 00:25:19;;;;;;;3.72;2.40;;;19.90;91.50;;;;;;5024422;28;20487;-79
2021/03/26 00:27:45;;;;;;;2.92;2.17;;;19.90;91.50;;;;;;5041633;28;20107;-80
2021/03/26 00:30:12;;;;;;;4.07;2.40;;;19.90;91.50;;;;;;5041367;28;20391;-80
2021/03/26 00:32:39;;;;;;;3.40;2.83;;;19.90;91.50;;;;;;5041899;28;20506;-78
2021/03/26 00:35:08;;;;;;;3.08;2.50;;;19.90;91.50;;;;;;5041626;28;20030;-80
2021/03/26 00:37:33;;;;;;;3.35;2.63;;;19.90;91.50;;;;;;5041745;28;20018;-79
2021/03/26 00:39:59;;;;;;;3.72;2.80;;;19.90;91.50;;;;;;5042055;28;20416;-80
2021/03/26 00:42:25;;;;;;;3.60;3.03;;;19.90;91.50;;;;;;5024118;28;20026;-80
2021/03/26 00:44:50;;;;;;;3.65;3.25;;;19.90;91.50;;;;;;5023428;28;20430;-81
2021/03/26 00:47:16;;;;;;;3.60;2.92;;;19.90;91.50;;;;;;5041946;28;20036;-80
2021/03/26 00:49:42;;;;;;;4.07;3.25;;;19.90;91.50;;;;;;5041405;28;20025;-80
2021/03/26 00:52:09;;;;;;;3.95;3.30;;;19.90;91.70;;;;;;5041505;28;20037;-81
2021/03/26 00:54:34;;;;;;;3.97;3.20;;;19.90;91.50;;;;;;5041617;28;20166;-80
2021/03/26 00:57:00;;;;;;;5.25;3.55;;;19.90;91.50;;;;;;5041024;28;20029;-80
2021/03/26 00:59:26;;;;;;;4.60;3.50;;;19.90;91.50;;;;;;5040955;28;20064;-80
2021/03/26 01:01:52;;;;;;;5.93;3.92;;;19.90;91.50;;;;;;5040979;28;20030;-84
2021/03/26 01:04:17;;;;;;;5.00;3.90;;;19.90;91.50;;;;;;5041577;28;20132;-80
2021/03/26 01:06:43;;;;;;;5.25;3.95;;;19.90;91.50;;;;;;5023355;28;20066;-80
2021/03/26 01:09:09;;;;;;;5.38;3.95;;;19.90;91.50;;;;;;5041034;28;20108;-80
2021/03/26 01:11:37;;;;;;;5.82;4.32;;;19.90;91.50;;;;;;5042538;28;20051;-79
2021/03/26 01:14:05;;;;;;;5.75;4.10;;;19.90;91.50;;;;;;5040614;28;20026;-81
2021/03/26 01:16:31;;;;;;;5.45;3.35;;;19.90;91.50;;;;;;5040381;28;20514;-80
2021/03/26 01:18:57;;;;;;;5.80;4.00;;;19.90;91.50;;;;;;5041809;28;20112;-81
2021/03/26 01:21:27;;;;;;;5.80;4.05;;;19.90;91.50;;;;;;5040965;28;20111;-80
2021/03/26 01:23:54;;;;;;;4.95;3.85;;;19.90;91.50;;;;;;5040796;28;20030;-81
2021/03/26 01:26:19;;;;;;;5.20;3.90;;;19.80;91.40;;;;;;5041131;28;20038;-81
2021/03/26 01:28:46;;;;;;;6.07;3.78;;;19.90;91.50;;;;;;5042283;28;20475;-80
2021/03/26 01:31:12;;;;;;;4.88;3.90;;;19.90;91.50;;;;;;5039988;28;20138;-80
2021/03/26 01:33:38;;;;;;;5.30;4.18;;;19.90;91.50;;;;;;5039822;28;20442;-80
2021/03/26 01:36:04;;;;;;;5.95;4.55;;;19.80;91.50;;;;;;5041294;28;20468;-81
2021/03/26 01:38:30;;;;;;;6.00;4.30;;;19.80;91.50;;;;;;5022442;28;20034;-80
2021/03/26 01:40:59;;;;;;;6.13;4.60;;;19.80;91.50;;;;;;5040560;28;20085;-83
2021/03/26 01:43:28;;;;;;;6.03;4.53;;;19.80;91.50;;;;;;5041183;28;20029;-80
2021/03/26 01:45:55;;;;;;;6.63;4.70;;;19.80;91.50;;;;;;5042358;28;20500;-77
2021/03/26 01:48:31;;;;;;;6.70;4.53;;;19.80;91.50;;;;;;5040037;28;20044;-78
2021/03/26 01:50:58;;;;;;;6.97;5.30;;;19.80;91.50;;;;;;5040134;28;20030;-80
2021/03/26 01:53:24;;;;;;;7.97;5.25;;;19.90;91.50;;;;;;5022635;28;20029;-78
2021/03/26 01:55:52;;;;;;;6.65;5.07;;;19.80;91.50;;;;;;5039831;28;20498;-80
2021/03/26 01:58:20;;;;;;;7.88;5.65;;;19.80;91.50;;;;;;5021520;28;20029;-78
2021/03/26 02:00:53;;;;;;;6.50;4.90;;;19.80;91.50;;;;;;5040132;28;20033;-79
2021/03/26 02:03:29;;;;;;;5.85;4.32;;;19.80;91.50;;;;;;5022502;28;20033;-80
2021/03/26 02:05:57;;;;;;;7.10;5.00;;;19.80;91.50;;;;;;5022289;28;20033;-80
2021/03/26 02:08:28;;;;;;;6.40;4.75;;;19.80;91.50;;;;;;5022407;28;20026;-80
2021/03/26 02:10:59;;;;;;;6.40;4.80;;;19.80;91.60;;;;;;5040695;28;20463;-81
2021/03/26 02:13:34;;;;;;;6.97;5.20;;;19.80;91.60;;;;;;5007354;28;20037;-80
2021/03/26 02:16:01;;;;;;;7.22;5.22;;;19.80;91.60;;;;;;5022933;28;20101;-82
2021/03/26 02:18:32;;;;;;;6.72;5.35;;;19.80;91.60;;;;;;5022722;28;20033;-81
2021/03/26 02:21:22;;;;;;;8.63;5.97;;;19.80;91.60;;;;;;5040305;28;20029;-81
2021/03/26 02:23:52;;;;;;;6.90;5.40;;;19.80;91.60;;;;;;5021506;28;20044;-81
2021/03/26 02:26:17;;;;;;;8.30;6.03;;;19.80;91.80;;;;;;5039798;28;20036;-81
2021/03/26 02:28:44;;;;;;;8.38;6.05;;;19.80;91.60;;;;;;5038015;28;20025;-80
2021/03/26 02:31:10;;;;;;;8.05;5.95;;;19.80;91.60;;;;;;5039254;28;20032;-79
2021/03/26 02:33:36;;;;;;;7.50;5.50;;;19.80;91.60;;;;;;5038887;28;20030;-80
2021/03/26 02:36:16;;;;;;;8.27;6.22;;;19.80;91.60;;;;;;5021114;28;20037;-80
2021/03/26 02:38:46;;;;;;;8.73;6.38;;;19.80;91.60;;;;;;5039794;28;20033;-79
2021/03/26 02:41:26;;;;;;;8.10;5.82;;;19.80;91.60;;;;;;5038469;28;20025;-78
2021/03/26 02:44:16;;;;;;;9.45;6.85;;;19.80;91.80;;;;;;5038058;28;20037;-79
2021/03/26 02:47:12;;;;;;;8.10;6.07;;;19.80;91.60;;;;;;5037876;28;20095;-79
2021/03/26 02:49:53;;;;;;;7.40;5.68;;;19.80;91.60;;;;;;5038676;28;20103;-78
2021/03/26 02:52:32;;;;;;;8.50;6.40;;;19.80;91.60;;;;;;5020448;28;20141;-79
2021/03/26 02:55:05;;;;;;;9.55;6.60;;;19.80;91.60;;;;;;5038618;28;20029;-79
2021/03/26 02:58:05;;;;;;;8.30;6.28;;;19.80;91.60;;;;;;5038029;28;20036;-79
2021/03/26 03:00:39;;;;;;;7.07;5.63;;;19.80;91.60;;;;;;4985189;28;20034;-79
2021/03/26 03:03:07;;;;;;;8.60;6.40;;;19.80;91.60;;;;;;5037791;28;20033;-80
2021/03/26 03:05:41;;;;;;;8.63;6.43;;;19.80;91.60;;;;;;5038663;28;20038;-80
2021/03/26 03:08:18;;;;;;;8.65;6.60;;;19.80;91.60;;;;;;5037807;28;20052;-80
2021/03/26 03:10:50;;;;;;;10.25;7.30;;;19.80;91.60;;;;;;5020768;28;20048;-79
2021/03/26 03:13:38;;;;;;;8.90;6.72;;;19.80;91.60;;;;;;5037865;28;20472;-79
2021/03/26 03:16:28;;;;;;;8.57;6.28;;;19.80;91.60;;;;;;5038422;28;20033;-79
2021/03/26 03:19:10;;;;;;;8.68;6.80;;;19.80;91.60;;;;;;5037870;28;20030;-79
2021/03/26 03:21:47;;;;;;;9.88;7.03;;;19.80;91.60;;;;;;5037976;28;20060;-79
2021/03/26 03:24:22;;;;;;;8.40;6.60;;;19.70;91.50;;;;;;5037524;28;20464;-79
2021/03/26 03:27:06;;;;;;;7.85;6.40;;;19.70;91.50;;;;;;5038197;28;20025;-80
2021/03/26 03:29:50;;;;;;;8.10;6.50;;;19.70;91.50;;;;;;5037879;28;20029;-78
2021/03/26 03:32:41;;;;;;;8.77;6.63;;;19.80;91.50;;;;;;5037641;28;20260;-80
2021/03/26 03:35:24;;;;;;;8.32;6.30;;;19.70;91.50;;;;;;5037921;28;20033;-81
2021/03/26 03:38:17;;;;;;;8.45;6.32;;;19.80;91.60;;;;;;5039587;28;20021;-80
2021/03/26 03:41:01;;;;;;;7.43;6.00;;;19.70;91.50;;;;;;5020077;28;20026;-80
2021/03/26 03:43:35;;;;;;;7.40;6.20;;;19.70;91.50;;;;;;5020083;28;20367;-80
2021/03/26 03:46:13;;;;;;;7.85;6.07;;;19.70;91.60;;;;;;5039831;28;20293;-79
2021/03/26 03:48:56;;;;;;;8.80;6.47;;;19.70;91.60;;;;;;5038003;28;20044;-80
2021/03/26 03:51:32;;;;;;;7.82;6.18;;;19.70;91.60;;;;;;5037881;28;20025;-78
2021/03/26 03:54:05;;;;;;;7.93;6.15;;;19.70;91.60;;;;;;5037877;28;20168;-78
2021/03/26 03:56:39;;;;;;;8.82;6.28;;;19.80;91.60;;;;;;5038096;28;20080;-78
2021/03/26 03:59:07;;;;;;;;;;;19.70;91.60;;;;;;5038583;28;20022;-78
2021/03/26 04:01:43;;;;;;;8.32;6.45;;;19.70;91.60;;;;;;5037528;28;19905;-78
2021/03/26 04:04:20;;;;;;;9.73;7.15;;;19.70;91.60;;;;;;5037769;28;20029;-83
2021/03/26 04:06:55;;;;;;;9.05;6.90;;;19.80;91.60;;;;;;5021252;28;20456;-78
2021/03/26 04:09:28;;;;;;;7.63;5.85;;;19.70;91.60;;;;;;5020633;28;20028;-79
2021/03/26 04:12:01;;;;;;;7.07;6.30;;;19.70;91.60;;;;;;5037986;28;20067;-78
2021/03/26 04:14:38;;;;;;;9.73;7.05;;;19.70;91.60;;;;;;5020232;28;20040;-78
2021/03/26 04:17:10;;;;;;;9.52;7.07;;;19.70;91.60;;;;;;5037591;28;20025;-78
2021/03/26 04:19:41;;;;;;;7.82;6.00;;;19.70;91.70;;;;;;5004289;28;20433;-78
2021/03/26 04:22:17;;;;;;;8.32;6.47;;;19.70;91.70;;;;;;5038026;28;20029;-77
2021/03/26 04:24:54;;;;;;;7.80;6.30;;;19.80;91.70;;;;;;5037982;28;20136;-78
2021/03/26 04:27:40;;;;;;;8.75;6.80;;;19.70;91.70;;;;;;5037572;28;20025;-78
2021/03/26 04:30:39;;;;;;;8.60;6.53;;;19.70;91.70;;;;;;5037487;28;20109;-79
2021/03/26 04:33:05;;;;;;;9.30;7.10;;;19.70;91.70;;;;;;5031737;28;20045;-77
2021/03/26 04:35:32;;;;;;;9.27;7.25;;;19.70;91.70;;;;;;5037439;28;20464;-78
2021/03/26 04:38:01;;;;;;;8.90;6.70;;;19.70;91.70;;;;;;5037257;28;20080;-78
2021/03/26 04:40:34;;;;;;;8.90;7.07;;;19.80;91.70;;;;;;5037568;28;20028;-78
2021/03/26 04:43:21;;;;;;;9.13;6.78;;;19.70;91.70;;;;;;5037616;28;20081;-78
2021/03/26 04:46:00;;;;;;;8.38;6.55;;;19.70;91.70;;;;;;5037438;28;20042;-78
2021/03/26 04:48:36;;;;;;;9.43;7.20;;;19.70;91.70;;;;;;5036980;28;20026;-77
2021/03/26 04:51:46;;;;;;;9.07;7.10;;;19.70;91.70;;;;;;5037670;28;20076;-78
2021/03/26 04:54:42;;;;;;;8.57;6.97;;;19.70;91.70;;;;;;4942141;29;20035;-78
2021/03/26 04:57:18;;;;;;;10.07;7.07;;;19.70;91.70;;;;;;4942038;29;20031;-79
2021/03/26 04:59:59;;;;;;;9.25;7.18;;;19.70;91.70;;;;;;5003753;28;20041;-78
2021/03/26 05:02:25;;;;;;;10.98;7.55;;;19.70;91.70;;;;;;5040539;28;20024;-78
2021/03/26 05:04:54;;;;;;;9.27;7.30;;;19.70;91.70;;;;;;5041065;28;20030;-78
2021/03/26 05:07:34;;;;;;;9.30;6.60;;;19.70;91.70;;;;;;5041369;28;20025;-78
2021/03/26 05:10:03;;;;;;;8.10;6.40;;;19.70;91.70;;;;;;5040882;28;20028;-78
2021/03/26 05:12:35;;;;;;;10.05;6.95;;;19.70;91.70;;;;;;5039744;28;20025;-78
2021/03/26 05:15:15;;;;;;;9.02;6.80;;;19.70;91.80;;;;;;5040905;28;20037;-77
2021/03/26 05:17:49;;;;;;;8.73;6.45;;;19.70;91.80;;;;;;5040382;28;20026;-78
2021/03/26 05:20:23;;;;;;;7.50;6.20;;;19.70;91.80;;;;;;5037844;28;20099;-78
2021/03/26 05:23:11;;;;;;;8.13;6.18;;;19.70;91.80;;;;;;5038955;28;20029;-78
2021/03/26 05:25:45;;;;;;;7.43;6.40;;;19.70;91.70;;;;;;5038922;28;20056;-78
2021/03/26 05:28:26;;;;;;;9.10;6.75;;;19.70;91.80;;;;;;5035160;28;20033;-78
2021/03/26 05:30:53;;;;;;;6.63;5.85;;;19.70;91.80;;;;;;5034995;28;20036;-78
2021/03/26 05:33:21;;;;;;;6.53;5.60;;;19.70;91.80;;;;;;5034888;28;20091;-81
2021/03/26 05:35:51;;;;;;;8.27;6.55;;;19.70;91.80;;;;;;5018018;28;20121;-80
2021/03/26 05:38:27;;;;;;;7.80;6.22;;;19.70;91.80;;;;;;5035479;28;20030;-79
2021/03/26 05:41:21;;;;;;;8.63;6.93;;;19.70;91.80;;;;;;5001695;28;20075;-80
2021/03/26 05:44:10;;;;;;;7.90;6.05;;;19.70;91.80;;;;;;5034667;28;20029;-80
2021/03/26 05:46:46;;;;;;;7.68;6.20;;;19.70;91.80;;;;;;5039768;28;20045;-79
2021/03/26 05:49:31;;;;;;;8.20;6.22;;;19.70;91.80;;;;;;5054818;28;20095;-80
2021/03/26 05:52:44;;;;;;;7.40;5.60;;;19.70;91.80;;;;;;5054579;28;20036;-80
2021/03/26 05:55:44;;;;;;;7.03;5.40;;;19.70;91.80;;;;;;5054608;28;20052;-80
2021/03/26 05:58:34;;;;;;;6.22;5.30;;;19.70;91.80;;;;;;5054808;28;20025;-80
2021/03/26 06:01:37;;;;;;;6.65;5.53;;;19.60;91.80;;;;;;5054302;28;20040;-79
2021/03/26 06:04:21;;;;;;;7.07;5.88;;;19.70;91.80;;;;;;5054141;28;20175;-80
2021/03/26 06:07:15;;;;;;;7.35;5.93;;;19.70;91.80;;;;;;5054518;28;20087;-80
2021/03/26 06:09:40;;;;;;;7.82;6.15;;;19.70;91.80;;;;;;5054006;28;20053;-80
2021/03/26 06:12:40;;;;;;;7.45;5.63;;;19.70;91.90;;;;;;5054267;28;20064;-80
2021/03/26 06:15:37;;;;;;;7.88;5.57;;;19.70;91.90;;;;;;5053050;28;20083;-80
2021/03/26 06:18:21;;;;;;;6.55;5.28;;;19.70;91.90;;;;;;5054325;28;20061;-79
2021/03/26 06:21:34;;;;;;;6.68;5.30;;;19.70;91.80;;;;;;5053796;28;20114;-80
2021/03/26 06:24:36;;;;;;;6.78;5.15;;;19.70;91.90;;;;;;5046655;28;20048;-80
2021/03/26 06:27:09;;;;;;;6.05;4.90;;;19.70;91.90;;;;;;5054011;28;20529;-80
2021/03/26 06:29:54;;;;;;;6.93;4.90;;;19.70;91.90;;;;;;5053896;28;20115;-81
2021/03/26 06:32:38;;;;;;;6.22;4.65;;;19.70;91.90;;;;;;5055300;28;20025;-80
2021/03/26 06:35:25;;;;;;;6.68;4.95;;;19.70;91.90;;;;;;5052784;28;20395;-80
2021/03/26 06:38:09;;;;;;;7.03;5.22;;;19.70;91.90;;;;;;5052316;28;20025;-80
2021/03/26 06:40:49;;;;;;;7.20;5.70;;;19.70;91.90;;;;;;5055086;28;20024;-80
2021/03/26 06:43:25;;;;;;;6.35;5.13;;;19.70;91.90;;;;;;5053644;28;20479;-80
2021/03/26 06:46:01;;;;;;;7.97;6.05;;;19.70;91.90;;;;;;5046400;28;20050;-79
2021/03/26 06:49:04;;;;;;;9.80;6.20;;;19.70;91.90;;;;;;5015445;28;20048;-80
2021/03/26 06:51:33;;;;;;;8.60;6.80;;;19.70;91.80;;;;;;5017061;28;20032;-80
2021/03/26 06:54:11;;;;;;;7.85;6.13;;;19.70;91.90;;;;;;5033350;28;20041;-80
2021/03/26 06:57:11;;;;;;;8.43;6.82;;;19.70;91.90;;;;;;5033088;28;20486;-80
2021/03/26 06:59:37;;;;;;;8.30;6.75;;;19.80;91.90;;;;;;4994929;28;20033;-79
2021/03/26 07:02:11;;;;;;;9.98;7.03;;;19.70;91.80;;;;;;5034883;28;20029;-80
2021/03/26 07:05:16;;;;;;;9.48;7.22;;;19.70;91.80;;;;;;5032900;28;20033;-82
2021/03/26 07:08:14;;;;;;;9.68;7.35;;;19.70;91.80;;;;;;5033251;28;20030;-81
2021/03/26 07:11:12;;;;;;;10.57;8.40;;;19.80;92.30;;;;;;5033106;28;20029;-82
2021/03/26 07:14:02;;;;;;;12.88;9.23;;;19.80;92.80;;;;;;5032756;28;20029;-82
2021/03/26 07:16:38;;;;;;;12.23;9.27;;;19.90;93.10;;;;;;5034799;28;20079;-86
2021/03/26 07:19:18;;;;;;;12.07;9.15;;;19.90;93.20;;;;;;5033044;28;20515;-82
2021/03/26 07:22:14;;;;;;;11.95;9.60;;;20.00;93.30;;;;;;5031906;28;20025;-82
2021/03/26 07:25:08;;;;;;;11.60;8.35;;;20.00;93.40;;;;;;4982284;28;20136;-82
2021/03/26 07:28:09;;;;;;;12.88;9.10;;;20.10;93.50;;;;;;5032522;28;20587;-82
2021/03/26 07:31:05;;;;;;;12.02;9.45;;;20.10;93.60;;;;;;5032635;28;20030;-80
2021/03/26 07:33:38;;;;;;;13.98;10.40;;;20.10;93.60;;;;;;4982260;28;20549;-83
2021/03/26 07:36:10;;;;;;;15.55;10.38;;;20.10;93.60;;;;;;5014954;28;20029;-82
2021/03/26 07:38:51;;;;;;;12.85;9.85;;;20.20;93.80;;;;;;5032592;28;20082;-80
2021/03/26 07:41:28;;;;;;;13.95;10.65;;;20.20;93.90;;;;;;5034082;28;20044;-80
2021/03/26 07:44:30;;;;;;;14.23;10.93;;;20.20;93.90;;;;;;5032504;28;20029;-81
2021/03/26 07:47:27;;;;;;;13.60;10.00;;;20.20;93.90;;;;;;5038864;28;20053;-81
2021/03/26 07:50:11;;;;;;;13.52;10.07;;;20.30;93.90;;;;;;5032525;28;20041;-81
2021/03/26 07:52:58;;;;;;;14.82;10.55;;;20.20;93.90;;;;;;5032570;28;20065;-82
2021/03/26 07:55:27;;;;;;;13.82;10.07;;;20.30;93.90;;;;;;5032763;28;20075;-83
2021/03/26 07:58:14;;;;;;;12.23;10.00;;;20.30;93.90;;;;;;5032794;28;20475;-81
2021/03/26 08:01:04;;;;;;;11.68;9.18;;;20.30;93.90;;;;;;5014840;28;20075;-81
2021/03/26 08:03:48;;;;;;;12.45;9.85;;;20.30;93.90;;;;;;5013129;28;20029;-82
2021/03/26 08:06:14;;;;;;;12.52;9.35;;;20.30;93.90;;;;;;5015418;28;20061;-81
2021/03/26 08:08:52;;;;;;;14.10;9.93;;;20.30;93.90;;;;;;5033169;28;20053;-81
2021/03/26 08:11:50;;;;;;;11.18;8.65;;;20.30;93.80;;;;;;5032614;28;20117;-81
2021/03/26 08:14:16;;;;;;;11.82;8.85;;;20.30;93.80;;;;;;5033110;28;20104;-82
2021/03/26 08:17:09;;;;;;;11.95;8.85;;;20.40;93.80;;;;;;5032615;28;20100;-82
2021/03/26 08:19:59;;;;;;;10.50;8.55;;;20.40;93.80;;;;;;5032556;28;20489;-82
2021/03/26 08:22:38;;;;;;;9.98;8.23;;;20.40;93.80;;;;;;5032453;28;20467;-81
2021/03/26 08:25:32;;;;;;;11.95;8.85;;;20.40;93.80;;;;;;5032540;28;20036;-82
2021/03/26 08:28:17;;;;;;;11.40;9.10;;;20.40;93.70;;;;;;5016566;28;20029;-80
2021/03/26 08:31:03;;;;;;;11.20;8.60;;;20.40;93.70;;;;;;5018685;28;20134;-82
2021/03/26 08:34:36;;;;;;;12.32;9.15;;;20.40;93.70;;;;;;4985818;28;20052;-82
2021/03/26 08:37:19;;;;;;;12.75;10.13;;;20.40;93.70;;;;;;4902806;29;20045;-82
2021/03/26 08:39:51;;;;;;;13.05;9.90;;;20.40;93.70;;;;;;4936707;29;20077;-81
2021/03/26 08:42:22;;;;;;;11.77;9.10;;;20.40;93.70;;;;;;5018626;28;20037;-81
2021/03/26 08:44:55;;;;;;;12.48;9.35;;;20.40;93.60;;;;;;5018077;28;20071;-82
2021/03/26 08:47:46;;;;;;;12.63;9.90;;;20.40;93.60;;;;;;5041593;28;20045;-81
2021/03/26 08:50:23;;;;;;;12.05;9.35;;;20.40;93.60;;;;;;5056446;28;20128;-80
2021/03/26 08:53:16;;;;;;;12.55;9.90;;;20.40;93.60;;;;;;5054977;28;20032;-81
2021/03/26 08:56:03;;;;;;;12.13;8.88;;;20.40;93.60;;;;;;5054653;28;20100;-83
2021/03/26 08:58:49;;;;;;;12.40;9.80;;;20.40;93.60;;;;;;5056779;28;20059;-82
2021/03/26 09:01:45;;;;;;;15.18;10.68;;;20.40;93.60;;;;;;5055434;28;20106;-81
2021/03/26 09:04:35;;;;;;;16.08;11.43;;;20.40;93.50;;;;;;5054650;28;20040;-80
2021/03/26 09:07:35;;;;;;;14.32;10.80;;;20.40;93.50;;;;;;5055261;28;20475;-80
2021/03/26 09:10:16;;;;;;;16.25;12.40;;;20.50;93.60;;;;;;5055146;28;20048;-81
2021/03/26 09:12:56;;;;;;;16.08;12.32;;;20.50;93.60;;;;;;5055289;28;20459;-81
2021/03/26 09:15:46;;;;;;;18.65;13.63;;;20.50;93.70;;;;;;5055137;28;20032;-80
2021/03/26 09:18:20;;;;;;;18.80;13.63;;;20.50;93.70;;;;;;5055766;28;20075;-82
2021/03/26 09:21:12;;;;;;;17.92;13.85;;;20.50;93.70;;;;;;5055085;28;20027;-81
2021/03/26 09:23:50;;;;;;;18.55;13.88;;;20.50;93.70;;;;;;5055192;28;20100;-80
2021/03/26 09:26:34;;;;;;;19.23;14.45;;;20.50;93.70;;;;;;5055492;28;20040;-80
2021/03/26 09:29:12;;;;;;;21.77;15.18;;;20.50;93.70;;;;;;5053774;28;20033;-80
2021/03/26 09:31:56;;;;;;;22.60;16.52;;;20.50;93.70;;;;;;5055012;28;20033;-80
2021/03/26 09:34:38;;;;;;;19.58;15.02;;;20.50;93.70;;;;;;5055323;28;20033;-81
2021/03/26 09:37:28;;;;;;;21.25;15.35;;;20.50;93.60;;;;;;5055178;28;20037;-81
2021/03/26 09:39:58;;;;;;;21.23;16.00;;;20.50;93.60;;;;;;5055092;28;20044;-81
2021/03/26 09:43:01;;;;;;;21.73;16.17;;;20.50;93.60;;;;;;5055539;28;20025;-78
2021/03/26 09:45:34;;;;;;;23.40;16.67;;;20.50;93.50;;;;;;5041383;28;20045;-81
2021/03/26 09:48:17;;;;;;;23.10;17.00;;;20.50;93.80;;;;;;5036896;28;20075;-80
2021/03/26 09:51:13;;;;;;;22.27;16.33;;;20.50;93.50;;;;;;5034738;28;20369;-82
2021/03/26 09:53:41;;;;;;;22.08;16.40;;;20.50;93.40;;;;;;5036144;28;20043;-82
2021/03/26 09:56:51;;;;;;;21.20;16.08;;;20.50;93.40;;;;;;5035900;28;20037;-81
2021/03/26 09:59:51;;;;;;;20.98;15.25;;;20.50;93.30;;;;;;5036515;28;20056;-79
2021/03/26 10:02:35;;;;;;;20.52;15.95;;;20.50;93.30;;;;;;5020831;28;20470;-80
2021/03/26 10:05:39;;;;;;;23.48;17.15;;;20.50;93.30;;;;;;5034444;28;20044;-82
2021/03/26 10:11:12;;;;;;;21.77;16.50;;;20.60;93.20;;;;;;5034496;28;20057;-79
2021/03/26 10:13:46;;;;;;;21.60;16.63;;;20.60;93.20;;;;;;5034408;28;20104;-84
2021/03/26 10:16:16;;;;;;;21.48;16.10;;;20.60;93.20;;;;;;5034371;28;20075;-80
2021/03/26 10:18:43;;;;;;;22.17;16.05;;;20.60;93.10;;;;;;5034189;28;20032;-81
2021/03/26 10:21:20;;;;;;;20.05;15.07;;;20.60;93.00;;;;;;5033762;28;20123;-80
2021/03/26 10:24:20;;;;;;;19.38;14.93;;;20.60;92.90;;;;;;5034229;28;20053;-81
2021/03/26 10:27:11;;;;;;;19.13;14.38;;;20.60;92.80;;;;;;4999902;28;20399;-80
2021/03/26 10:30:17;;;;;;;19.77;14.75;;;20.60;92.70;;;;;;5032634;28;20034;-80
2021/03/26 10:32:48;;;;;;;17.10;12.95;;;20.70;92.70;;;;;;5028789;28;20048;-81
2021/03/26 10:35:22;;;;;;;18.75;13.82;;;20.70;92.60;;;;;;5016468;28;20038;-79
2021/03/26 10:37:59;;;;;;;16.35;12.25;;;20.70;92.50;;;;;;5034189;28;20073;-79
2021/03/26 10:40:55;;;;;;;20.38;14.27;;;20.70;92.50;;;;;;5034478;28;20033;-81
2021/03/26 10:43:30;;;;;;;25.55;15.57;;;20.70;92.60;;;;;;5034238;28;20026;-83
2021/03/26 10:46:21;;;;;;;27.63;17.55;;;20.80;92.80;;;;;;5033532;28;20033;-82
2021/03/26 10:49:05;;;;;;;35.55;20.45;;;20.80;92.80;;;;;;5015320;28;20025;-81
2021/03/26 10:51:36;;;;;;;45.33;24.13;;;20.80;92.80;;;;;;5033762;28;20029;-79
2021/03/26 10:54:07;;;;;;;43.67;24.77;;;20.90;92.80;;;;;;5033168;28;20084;-80
2021/03/26 10:56:41;;;;;;;49.20;27.02;;;20.90;92.90;;;;;;5033463;28;20041;-79
2021/03/26 10:59:21;;;;;;;55.60;28.65;;;20.90;92.90;;;;;;5033420;28;20071;-79
2021/03/26 11:01:50;;;;;;;64.15;35.05;;;21.00;93.00;;;;;;5033367;28;20065;-78
2021/03/26 11:04:25;;;;;;;74.97;36.50;;;21.00;92.90;;;;;;5032949;28;20041;-80
2021/03/26 11:07:15;;;;;;;81.47;41.67;;;21.10;92.90;;;;;;5033070;28;20104;-80
2021/03/26 11:09:59;;;;;;;99.65;47.03;;;21.10;92.90;;;;;;5015128;28;20142;-78
2021/03/26 11:12:47;;;;;;;99.40;49.58;;;21.10;93.00;;;;;;5032045;28;20096;-79
2021/03/26 11:15:20;;;;;;;100.22;50.42;;;21.20;93.00;;;;;;5033110;28;20041;-77
2021/03/26 11:18:02;;;;;;;110.10;52.30;;;21.20;93.10;;;;;;5033383;28;20091;-78
2021/03/26 11:20:37;;;;;;;106.40;51.22;;;21.20;93.10;;;;;;5033420;28;20025;-79
2021/03/26 11:23:24;;;;;;;118.63;58.63;;;21.20;93.10;;;;;;5032821;28;20030;-78
2021/03/26 11:26:14;;;;;;;118.07;59.03;;;21.30;93.10;;;;;;5033250;28;20137;-77
2021/03/26 11:28:51;;;;;;;120.45;58.90;;;21.30;93.20;;;;;;5034474;28;20052;-78
2021/03/26 11:31:54;;;;;;;123.97;58.85;;;21.30;93.30;;;;;;5038524;28;20087;-84
2021/03/26 11:34:39;;;;;;;116.57;55.92;;;21.30;93.40;;;;;;5019257;28;20025;-86
2021/03/26 11:37:10;;;;;;;;;;;21.40;93.40;;;;;;5020101;28;20033;-84
2021/03/26 11:40:03;;;;;;;92.07;46.90;;;21.30;93.20;;;;;;5022997;28;20331;-86
2021/03/26 11:42:35;;;;;;;73.85;40.20;;;21.40;93.10;;;;;;5023897;28;20116;-90
2021/03/26 11:45:16;;;;;;;71.05;37.55;;;21.40;93.00;;;;;;5037777;28;20455;-84
2021/03/26 11:47:44;;;;;;;60.03;34.20;;;21.30;92.70;;;;;;5037229;28;20049;-83
2021/03/26 11:50:30;;;;;;;54.38;28.80;;;21.40;92.50;;;;;;5037593;28;20456;-82
2021/03/26 11:53:17;;;;;;;48.60;28.50;;;21.30;92.30;;;;;;5038219;28;20379;-82
2021/03/26 11:56:12;;;;;;;42.92;25.45;;;21.40;92.30;;;;;;5038392;28;20040;-83
2021/03/26 11:58:58;;;;;;;44.27;25.07;;;21.40;92.20;;;;;;4969585;28;20030;-83
2021/03/26 12:01:32;;;;;;;40.22;22.63;;;21.40;92.30;;;;;;5044472;28;20121;-84
2021/03/26 12:04:21;;;;;;;37.77;22.63;;;21.40;92.40;;;;;;5042666;28;20029;-80
2021/03/26 12:07:22;;;;;;;33.50;20.13;;;21.30;92.50;;;;;;5056677;28;20274;-80
2021/03/26 12:10:12;;;;;;;31.70;18.92;;;21.30;92.50;;;;;;5007825;28;20033;-81
2021/03/26 12:12:44;;;;;;;31.27;18.85;;;21.40;92.50;;;;;;5060990;28;20031;-80
2021/03/26 12:15:14;;;;;;;29.25;18.30;;;21.40;92.50;;;;;;5058413;28;20025;-81
2021/03/26 12:17:52;;;;;;;27.15;17.20;;;21.30;92.50;;;;;;5058991;28;20021;-82
2021/03/26 12:20:29;;;;;;;24.67;16.85;;;21.30;92.50;;;;;;5041432;28;20029;-82
2021/03/26 12:22:59;;;;;;;25.88;17.33;;;21.30;92.50;;;;;;5059806;28;20053;-84
2021/03/26 12:25:38;;;;;;;23.85;15.30;;;21.30;92.50;;;;;;5059466;28;20111;-81
2021/03/26 12:28:17;;;;;;;25.27;16.90;;;21.30;92.40;;;;;;5058815;28;20087;-83
2021/03/26 12:30:55;;;;;;;23.63;15.82;;;21.30;92.50;;;;;;5060160;28;20050;-83
2021/03/26 12:33:35;;;;;;;22.92;14.85;;;21.20;92.40;;;;;;5059435;28;20024;-83
2021/03/26 12:36:08;;;;;;;21.50;15.27;;;21.30;92.40;;;;;;5069339;28;20048;-83
2021/03/26 12:38:44;;;;;;;24.90;17.00;;;21.20;92.40;;;;;;5040068;28;20138;-82
2021/03/26 12:41:16;;;;;;;24.63;17.85;;;21.20;92.40;;;;;;5057918;28;20029;-82
2021/03/26 12:43:52;;;;;;;26.00;17.48;;;21.30;92.30;;;;;;5055530;28;20021;-85
2021/03/26 12:46:23;;;;;;;29.77;19.48;;;21.20;92.30;;;;;;5055289;28;20045;-85
2021/03/26 12:49:04;;;;;;;25.65;18.65;;;21.20;92.20;;;;;;5037271;28;20033;-83
2021/03/26 12:51:48;;;;;;;31.83;21.20;;;21.20;92.20;;;;;;5038014;28;20360;-83
2021/03/26 12:54:40;;;;;;;32.37;21.07;;;21.20;92.20;;;;;;5037509;28;20060;-82
2021/03/26 12:57:35;;;;;;;31.27;21.30;;;21.20;92.20;;;;;;5055165;28;20267;-85
2021/03/26 13:00:21;;;;;;;;;;;21.20;92.10;;;;;;5025414;28;20124;-83
2021/03/26 13:03:01;;;;;;;32.65;23.05;;;21.20;92.10;;;;;;5056136;28;19999;-83
2021/03/26 13:05:29;;;;;;;32.15;21.73;;;21.20;92.10;;;;;;5055096;28;20032;-83
2021/03/26 13:08:10;;;;;;;34.10;24.02;;;21.20;92.00;;;;;;5055255;28;20033;-81
2021/03/26 13:11:04;;;;;;;32.65;22.80;;;21.20;92.00;;;;;;5037653;28;20154;-82
2021/03/26 13:13:33;;;;;;;35.20;24.95;;;21.20;91.90;;;;;;5036329;28;20474;-83
2021/03/26 13:16:40;;;;;;;37.88;25.75;;;21.20;91.90;;;;;;5037010;28;20557;-83
2021/03/26 13:19:19;;;;;;;37.63;26.20;;;21.20;91.80;;;;;;5042452;28;20037;-83
2021/03/26 13:22:04;;;;;;;32.53;23.65;;;21.10;91.70;;;;;;5037080;28;20031;-83
2021/03/26 13:24:55;;;;;;;33.38;22.88;;;21.20;91.70;;;;;;5054873;28;20037;-82
2021/03/26 13:27:20;;;;;;;30.65;21.33;;;21.10;91.60;;;;;;5036895;28;20424;-83
2021/03/26 13:30:17;;;;;;;29.58;20.65;;;21.10;91.80;;;;;;5054947;28;20033;-83
2021/03/26 13:32:54;;;;;;;28.33;20.55;;;21.10;91.50;;;;;;5011900;28;20051;-84
2021/03/26 13:35:25;;;;;;;23.52;17.67;;;21.10;91.40;;;;;;5054785;28;20063;-84
2021/03/26 13:38:00;;;;;;;24.25;17.08;;;21.10;91.40;;;;;;5054929;28;20025;-82
2021/03/26 13:40:29;;;;;;;22.13;16.45;;;21.10;91.40;;;;;;5054521;28;20483;-83
2021/03/26 13:43:00;;;;;;;20.65;16.25;;;21.10;91.40;;;;;;5054639;28;20029;-83